If you wish to contribute or participate in the discussions about articles you are invited to join SKYbrary as a registered user

 Actions

Almería International Airport

From SKYbrary Wiki

LEAM
Airport
ICAO: LEAM – IATA: LEI
Summary
Name Almería International Airport
Region Europe
Territory Spain ES.gif
Location , Andalucia
Serving Almeria
Elevation 21.336 m
70 ft
70 ft21.336 m
Type medium airport
Coordinates 36° 50' 38.1696", -2° 22' 12.3492"
Close to Alboran Sea
Runways
Designator Length Width Surface ROPS
8/26 3200 m10,498.688 ft 45 m147.638 ft ASP no/no
METAR
Observation LEAM 130630Z 33015KT CAVOK 07/M02 Q1027
Station Almeria / Aeropuerto
Date/Time 13 December 2017 06:30:00
Wind direction 330°
Wind speed 15 kts
Lowest cloud amount clouds and visibility OK
Temperature 7°C
Dew point
Humidity 52%
QNH 1027 hPa
Weather condition n/a